Pagrindinis puslapis
METAR-TAF:

METAR-TAF

Oro uostai :

Montes Claros, Minas Žeraisas, Brazilija

platuma: 16-43S, ilguma: 043-52W, Aukštis: 646 m

Dabartinis oras

Ataskaita buvo paskelbta 27 minutes, ne 21:00 UTC
Vėjas 10 kt iš Rytų
Temperatūra 33°C
Drėgmė 21%
Slėgis 1013 hPa
Matomumas 10 km arba daugiau
nėra debesų žemiau 1500 m ir nėra kamuolinių lietaus debesų

METAR: SBMK 212100Z 09010KT CAVOK 33/08 Q1013

Laikas: 18:27 (21:27 UTC)


TAF: trūkstamas

Orai ataskaitas ir orų prognozės (METAR, TAF).

turimą stotys yra geltonos ir raudonos taškus žemėlapyje.

Perkelti pele per norėdami pamatyti stoties vardą.

Tada spustelėkite, norėdami matyti oro stebėjimo ir prognozės.

Norėdami pakeisti žemėlapį: spustelėkite ant žalios mygtukų su juodo kryžiaus žemyn,; žalią mygtuką su brūkšneliu, jei norite nutolinti; arba žalių rodyklių gretimoms žemėlapius.


METAR-TAF: